Time;durP1;ratioP1;P1;durP2;ratioP2;P2;SDS_P1;SDS_P2;PMS_P1;PMS_P2;Temp;Humidity;BMP_temperature;BMP_pressure;BME280_temperature;BME280_humidity;BME280_pressure;Samples;Min_cycle;Max_cycle;Signal;HPM_P1;HPM_P2
2022/05/31 00:01:20;;;;;;;2.47;1.75;;;9.40;99.90;;;;;;4935362;29;20448;-74
2022/05/31 00:03:45;;;;;;;0.80;0.80;;;9.40;99.90;;;;;;4937234;29;20024;-79
2022/05/31 00:06:11;;;;;;;0.85;0.80;;;9.40;99.90;;;;;;4920333;29;20511;-76
2022/05/31 00:08:37;;;;;;;1.92;1.00;;;9.50;99.90;;;;;;4935038;29;20035;-75
2022/05/31 00:11:03;;;;;;;1.48;1.00;;;9.40;99.90;;;;;;4935159;29;20036;-75
2022/05/31 00:13:29;;;;;;;2.13;1.20;;;9.40;99.90;;;;;;4934701;29;20040;-75
2022/05/31 00:15:55;;;;;;;1.30;0.93;;;9.40;99.90;;;;;;4934577;29;20032;-76
2022/05/31 00:18:21;;;;;;;2.22;1.20;;;9.30;99.90;;;;;;4917020;29;20043;-76
2022/05/31 00:20:47;;;;;;;1.10;1.00;;;;;;;;;;4933016;29;20023;-75
2022/05/31 00:23:13;;;;;;;2.85;0.95;;;9.30;99.90;;;;;;4934217;29;20182;-76
2022/05/31 00:25:39;;;;;;;3.20;1.00;;;9.30;99.90;;;;;;4934341;29;20090;-76
2022/05/31 00:28:05;;;;;;;0.75;0.75;;;9.20;99.90;;;;;;4934308;29;20058;-75
2022/05/31 00:30:32;;;;;;;1.77;1.42;;;;;;;;;;4933884;29;20159;-76
2022/05/31 00:32:57;;;;;;;0.85;0.80;;;9.00;99.90;;;;;;4934204;29;20137;-76
2022/05/31 00:35:31;;;;;;;2.95;1.00;;;8.90;99.90;;;;;;4934492;29;20181;-75
2022/05/31 00:37:58;;;;;;;0.75;0.75;;;8.90;99.90;;;;;;4916894;29;20385;-75
2022/05/31 00:40:26;;;;;;;1.10;1.00;;;8.90;99.90;;;;;;4917530;29;20030;-75
2022/05/31 00:43:04;;;;;;;1.85;1.02;;;8.90;99.90;;;;;;4935038;29;20031;-75
2022/05/31 00:45:46;;;;;;;1.00;0.85;;;8.90;99.90;;;;;;4935328;29;20485;-75
2022/05/31 00:48:40;;;;;;;6.30;1.75;;;8.80;99.90;;;;;;4935474;29;20114;-75
2022/05/31 00:51:14;;;;;;;0.90;0.90;;;8.80;99.90;;;;;;4932059;29;20040;-75
2022/05/31 00:53:46;;;;;;;1.27;1.15;;;8.80;99.90;;;;;;4918643;29;20060;-75
2022/05/31 00:56:22;;;;;;;2.58;0.88;;;8.80;99.90;;;;;;4916778;29;20107;-75
2022/05/31 00:59:04;;;;;;;1.45;1.10;;;8.80;99.90;;;;;;4933364;29;20026;-75
2022/05/31 01:01:35;;;;;;;2.83;0.90;;;8.80;99.90;;;;;;4933866;29;20036;-75
2022/05/31 01:04:01;;;;;;;5.53;1.75;;;8.80;99.90;;;;;;4935789;29;20024;-75
2022/05/31 01:06:27;;;;;;;1.23;1.13;;;8.90;99.90;;;;;;4937228;29;20539;-75
2022/05/31 01:08:56;;;;;;;3.25;1.02;;;8.90;99.90;;;;;;4920276;29;20079;-75
2022/05/31 01:11:27;;;;;;;1.53;1.13;;;8.90;99.90;;;;;;4920002;29;20118;-75
2022/05/31 01:13:53;;;;;;;1.42;1.10;;;9.00;99.90;;;;;;4937064;29;20094;-75
2022/05/31 01:16:19;;;;;;;1.25;1.08;;;9.00;99.90;;;;;;4936774;29;20440;-76
2022/05/31 01:18:45;;;;;;;1.10;1.00;;;8.90;99.90;;;;;;4936168;29;20032;-75
2022/05/31 01:21:10;;;;;;;1.45;0.98;;;8.90;99.90;;;;;;4936950;29;20126;-77
2022/05/31 01:23:47;;;;;;;1.45;1.20;;;8.70;99.90;;;;;;4937006;29;20095;-76
2022/05/31 01:26:24;;;;;;;1.00;0.98;;;8.70;99.90;;;;;;4936925;29;20062;-75
2022/05/31 01:29:07;;;;;;;1.90;1.23;;;8.70;99.90;;;;;;4936954;29;20103;-75
2022/05/31 01:32:03;;;;;;;2.60;1.40;;;8.80;99.90;;;;;;4936808;29;20275;-76
2022/05/31 01:34:59;;;;;;;4.30;2.30;;;8.70;99.90;;;;;;4937421;29;20102;-75
2022/05/31 01:37:36;;;;;;;2.05;1.58;;;8.70;99.90;;;;;;4934789;29;20028;-76
2022/05/31 01:40:07;;;;;;;2.10;1.00;;;8.70;99.90;;;;;;4919648;29;20023;-75
2022/05/31 01:42:40;;;;;;;3.20;1.35;;;8.60;99.90;;;;;;4936401;29;20035;-75
2022/05/31 01:45:15;;;;;;;1.65;1.45;;;8.60;99.90;;;;;;4936494;29;20527;-75
2022/05/31 01:47:41;;;;;;;6.82;2.40;;;8.50;99.90;;;;;;4919747;29;20032;-75
2022/05/31 01:50:12;;;;;;;2.35;1.40;;;8.50;99.90;;;;;;4936601;29;20024;-75
2022/05/31 01:52:38;;;;;;;1.65;1.55;;;8.60;99.90;;;;;;4937073;29;20028;-77
2022/05/31 01:55:05;;;;;;;1.52;1.23;;;8.60;99.90;;;;;;4936630;29;20087;-76
2022/05/31 01:57:33;;;;;;;6.88;2.20;;;8.60;99.90;;;;;;4919509;29;20397;-76
2022/05/31 02:00:08;;;;;;;1.70;1.42;;;8.70;99.90;;;;;;4919642;29;20028;-75
2022/05/31 02:02:34;;;;;;;1.50;1.40;;;8.70;99.90;;;;;;4936425;29;20039;-76
2022/05/31 02:05:00;;;;;;;2.35;1.25;;;8.70;99.90;;;;;;4919120;29;20393;-76
2022/05/31 02:07:26;;;;;;;1.92;1.50;;;8.80;99.90;;;;;;4935106;29;20032;-75
2022/05/31 02:09:54;;;;;;;10.20;1.85;;;8.90;99.90;;;;;;4919117;29;20031;-75
2022/05/31 02:12:21;;;;;;;4.72;1.77;;;9.00;99.90;;;;;;4936799;29;20427;-75
2022/05/31 02:14:47;;;;;;;2.97;2.03;;;9.00;99.90;;;;;;4935371;29;20114;-76
2022/05/31 02:17:16;;;;;;;1.50;1.40;;;;;;;;;;4936399;29;20492;-76
2022/05/31 02:19:42;;;;;;;1.55;1.45;;;9.00;99.90;;;;;;4936319;29;20057;-76
2022/05/31 02:22:12;;;;;;;2.30;2.10;;;8.90;99.90;;;;;;4918893;29;20493;-76
2022/05/31 02:24:37;;;;;;;1.45;1.35;;;8.80;99.90;;;;;;4935712;29;20024;-75
2022/05/31 02:27:04;;;;;;;4.13;1.48;;;8.80;99.90;;;;;;4934380;29;20504;-76
2022/05/31 02:29:32;;;;;;;2.97;1.30;;;8.70;99.90;;;;;;4935881;29;20020;-75
2022/05/31 02:32:00;;;;;;;4.83;2.30;;;8.60;99.90;;;;;;4936045;29;20043;-75
2022/05/31 02:34:28;;;;;;;1.60;1.50;;;8.50;99.90;;;;;;4936176;29;20263;-75
2022/05/31 02:36:54;;;;;;;2.67;1.88;;;8.50;99.90;;;;;;4935895;29;20028;-75
2022/05/31 02:39:20;;;;;;;1.83;1.20;;;8.50;99.90;;;;;;4935625;29;20028;-75
2022/05/31 02:41:46;;;;;;;3.72;1.42;;;;;;;;;;4936327;29;20042;-76
2022/05/31 02:44:12;;;;;;;2.25;1.70;;;8.50;99.90;;;;;;4935742;29;20075;-76
2022/05/31 02:46:39;;;;;;;1.27;1.17;;;8.40;99.90;;;;;;4935757;29;20572;-75
2022/05/31 02:49:06;;;;;;;4.18;1.33;;;8.40;99.90;;;;;;4935918;29;20031;-76
2022/05/31 02:51:41;;;;;;;4.28;2.58;;;8.40;99.90;;;;;;4918921;29;20028;-75
2022/05/31 02:54:08;;;;;;;1.42;1.33;;;8.40;99.90;;;;;;4935792;29;20510;-75
2022/05/31 02:56:34;;;;;;;1.65;1.48;;;8.40;99.90;;;;;;4918805;29;20051;-75
2022/05/31 02:59:00;;;;;;;2.70;1.80;;;8.40;99.90;;;;;;4934394;29;20074;-76
2022/05/31 03:01:32;;;;;;;2.67;1.92;;;8.50;99.90;;;;;;4934614;29;20043;-75
2022/05/31 03:03:58;;;;;;;1.42;1.33;;;8.50;99.90;;;;;;4918379;29;20424;-75
2022/05/31 03:06:24;;;;;;;2.40;1.60;;;8.60;99.90;;;;;;4918827;29;20031;-75
2022/05/31 03:08:51;;;;;;;2.15;1.55;;;8.70;99.90;;;;;;4918539;29;20485;-75
2022/05/31 03:11:20;;;;;;;2.25;1.40;;;8.70;99.90;;;;;;4918329;29;20071;-75
2022/05/31 03:13:47;;;;;;;;;;;8.80;99.90;;;;;;4918823;29;20193;-75
2022/05/31 03:16:15;;;;;;;3.38;1.70;;;8.80;99.90;;;;;;4935720;29;19913;-76
2022/05/31 03:18:48;;;;;;;3.25;1.60;;;8.70;99.90;;;;;;4918273;29;20028;-75
2022/05/31 03:21:21;;;;;;;1.98;1.83;;;8.70;99.90;;;;;;4935496;29;20040;-76
2022/05/31 03:23:52;;;;;;;1.92;1.75;;;8.60;99.90;;;;;;4935474;29;20020;-76
2022/05/31 03:26:21;;;;;;;4.00;1.30;;;8.60;99.90;;;;;;4935483;29;20042;-75
2022/05/31 03:28:47;;;;;;;2.08;1.40;;;8.50;99.90;;;;;;4935292;29;20041;-75
2022/05/31 03:31:13;;;;;;;2.10;1.58;;;8.50;99.90;;;;;;4935503;29;20500;-75
2022/05/31 03:33:39;;;;;;;1.40;1.30;;;8.50;99.90;;;;;;4935052;29;20031;-76
2022/05/31 03:36:05;;;;;;;3.50;1.75;;;8.40;99.90;;;;;;4917823;29;20030;-75
2022/05/31 03:38:31;;;;;;;2.75;1.45;;;8.30;99.90;;;;;;4933905;29;20031;-75
2022/05/31 03:40:57;;;;;;;1.95;1.73;;;;;;;;;;4935043;29;20047;-75
2022/05/31 03:43:29;;;;;;;2.42;1.38;;;8.30;99.90;;;;;;4935285;29;20110;-76
2022/05/31 03:45:55;;;;;;;1.25;1.02;;;8.20;99.90;;;;;;4935472;29;20032;-75
2022/05/31 03:48:21;;;;;;;2.53;1.30;;;8.20;99.90;;;;;;4917871;29;20030;-76
2022/05/31 03:51:00;;;;;;;1.75;1.42;;;8.10;99.90;;;;;;4934978;29;20516;-76
2022/05/31 03:53:27;;;;;;;4.53;2.15;;;8.10;99.90;;;;;;4936541;29;20039;-76
2022/05/31 03:55:53;;;;;;;1.85;1.38;;;;;;;;;;4936594;29;20039;-75
2022/05/31 03:58:19;;;;;;;1.85;1.42;;;8.10;99.90;;;;;;4918052;29;20122;-76
2022/05/31 04:00:46;;;;;;;1.85;1.70;;;8.10;99.90;;;;;;4934149;29;20034;-76
2022/05/31 04:03:13;;;;;;;3.17;1.40;;;8.10;99.90;;;;;;4933237;29;20091;-75
2022/05/31 04:05:39;;;;;;;2.25;2.05;;;8.10;99.90;;;;;;4933389;29;20020;-75
2022/05/31 04:08:08;;;;;;;3.97;1.33;;;8.10;99.90;;;;;;4933364;29;20362;-75
2022/05/31 04:10:36;;;;;;;2.22;1.33;;;8.10;99.90;;;;;;4933818;29;20665;-76
2022/05/31 04:13:02;;;;;;;2.08;1.30;;;8.30;99.90;;;;;;4916594;29;20044;-75
2022/05/31 04:15:28;;;;;;;1.77;1.52;;;8.30;99.90;;;;;;4934281;29;20521;-75
2022/05/31 04:17:54;;;;;;;1.65;1.55;;;8.40;99.90;;;;;;4933903;29;20058;-75
2022/05/31 04:20:20;;;;;;;1.88;1.55;;;8.50;99.90;;;;;;4934221;29;20392;-75
2022/05/31 04:22:46;;;;;;;1.30;1.20;;;8.50;99.90;;;;;;4915701;29;20400;-75
2022/05/31 04:25:12;;;;;;;3.13;1.50;;;8.80;99.90;;;;;;4933110;29;20027;-75
2022/05/31 04:27:38;;;;;;;1.88;1.73;;;8.80;99.90;;;;;;4933295;29;20514;-75
2022/05/31 04:30:04;;;;;;;1.50;1.40;;;9.00;99.90;;;;;;4915861;29;20368;-75
2022/05/31 04:32:31;;;;;;;1.33;1.23;;;;;;;;;;4933526;29;20518;-75
2022/05/31 04:34:56;;;;;;;2.80;1.20;;;9.50;99.90;;;;;;4916430;29;20032;-75
2022/05/31 04:37:22;;;;;;;2.22;1.45;;;9.50;99.90;;;;;;4936229;29;20408;-75
2022/05/31 04:39:48;;;;;;;1.85;1.75;;;9.50;99.90;;;;;;4942143;29;20106;-75
2022/05/31 04:42:16;;;;;;;1.48;1.38;;;9.60;99.90;;;;;;4925253;29;20095;-75
2022/05/31 04:44:42;;;;;;;1.88;1.73;;;9.60;99.90;;;;;;4941035;29;20054;-75
2022/05/31 04:47:08;;;;;;;4.68;2.00;;;9.60;99.90;;;;;;4942426;29;20028;-75
2022/05/31 04:49:34;;;;;;;1.90;1.25;;;9.70;99.90;;;;;;4924260;29;20075;-75
2022/05/31 04:52:00;;;;;;;1.50;1.40;;;9.80;99.90;;;;;;4942973;29;20024;-76
2022/05/31 04:54:28;;;;;;;1.52;1.02;;;10.00;99.90;;;;;;4942265;29;20094;-76
2022/05/31 04:56:54;;;;;;;2.47;1.13;;;10.10;99.90;;;;;;4942561;29;20123;-75
2022/05/31 04:59:20;;;;;;;2.33;1.63;;;10.10;99.90;;;;;;4942444;29;20059;-75
2022/05/31 05:01:46;;;;;;;2.17;1.10;;;10.10;99.90;;;;;;4941884;29;20051;-75
2022/05/31 05:04:12;;;;;;;1.63;1.20;;;10.20;99.90;;;;;;4940647;29;20028;-75
2022/05/31 05:06:39;;;;;;;5.43;2.38;;;10.20;99.90;;;;;;4942621;29;20027;-78
2022/05/31 05:09:05;;;;;;;1.45;1.35;;;10.20;99.90;;;;;;4943700;29;20351;-78
2022/05/31 05:11:32;;;;;;;1.38;1.08;;;10.40;99.90;;;;;;4943972;29;20483;-79
2022/05/31 05:13:58;;;;;;;3.15;1.55;;;;;;;;;;4943827;29;20036;-78
2022/05/31 05:16:25;;;;;;;2.80;1.58;;;10.40;99.90;;;;;;4943663;29;20032;-79
2022/05/31 05:18:51;;;;;;;1.42;1.33;;;10.30;99.90;;;;;;4926027;29;20078;-79
2022/05/31 05:21:17;;;;;;;1.88;1.38;;;10.30;99.90;;;;;;4943252;29;20051;-79
2022/05/31 05:23:43;;;;;;;1.20;1.00;;;10.30;99.90;;;;;;4942756;29;20083;-77
2022/05/31 05:26:11;;;;;;;1.67;1.40;;;10.30;99.90;;;;;;4943949;29;20028;-79
2022/05/31 05:31:30;;;;;;;1.50;1.40;;;10.50;99.90;;;;;;4944075;29;20051;-79
2022/05/31 05:33:57;;;;;;;1.40;1.30;;;10.60;99.90;;;;;;4943647;29;20047;-79
2022/05/31 05:36:24;;;;;;;2.17;1.98;;;10.60;99.90;;;;;;4948179;29;20039;-78
2022/05/31 05:38:50;;;;;;;4.00;1.38;;;10.70;99.90;;;;;;4951636;29;20027;-79
2022/05/31 05:41:16;;;;;;;2.42;1.52;;;11.10;99.90;;;;;;4927941;29;20444;-79
2022/05/31 05:43:42;;;;;;;7.28;2.80;;;13.60;99.90;;;;;;4961721;28;20440;-79
2022/05/31 05:46:17;;;;;;;5.35;3.28;;;11.30;99.90;;;;;;4963516;28;20035;-79
2022/05/31 05:48:43;;;;;;;5.05;2.03;;;11.30;99.90;;;;;;4962551;28;20023;-79
2022/05/31 05:51:25;;;;;;;4.80;2.30;;;11.30;99.90;;;;;;4940593;29;20037;-78
2022/05/31 05:53:51;;;;;;;2.10;2.00;;;11.50;99.90;;;;;;4954437;28;20034;-79
2022/05/31 05:56:17;;;;;;;4.05;2.40;;;11.50;99.90;;;;;;4976993;28;20113;-79
2022/05/31 05:58:44;;;;;;;4.53;2.78;;;11.70;99.90;;;;;;4957597;29;20019;-79
2022/05/31 06:01:33;;;;;;;5.10;3.40;;;11.90;99.90;;;;;;4959204;28;20055;-78
2022/05/31 06:04:01;;;;;;;4.32;1.80;;;12.20;99.90;;;;;;4963944;29;20040;-79
2022/05/31 06:06:31;;;;;;;3.80;2.13;;;12.50;99.90;;;;;;4957652;29;20427;-78
2022/05/31 06:09:07;;;;;;;4.22;2.33;;;12.50;99.90;;;;;;4957106;28;20480;-78
2022/05/31 06:11:58;;;;;;;3.13;2.35;;;12.50;99.90;;;;;;4964263;28;20102;-80
2022/05/31 06:14:37;;;;;;;1.83;1.60;;;12.80;99.90;;;;;;4959886;29;20130;-78
2022/05/31 06:17:14;;;;;;;2.33;1.70;;;13.20;99.90;;;;;;4960397;29;20035;-79
2022/05/31 06:19:40;;;;;;;3.15;1.30;;;13.20;99.90;;;;;;4949039;29;20043;-86
2022/05/31 06:22:07;;;;;;;1.33;1.33;;;13.60;99.90;;;;;;4969118;28;20599;-78
2022/05/31 06:24:35;;;;;;;1.85;1.20;;;13.80;99.90;;;;;;4971657;28;20321;-79
2022/05/31 06:27:01;;;;;;;1.52;1.40;;;;;;;;;;4951102;28;20031;-79
2022/05/31 06:29:30;;;;;;;1.98;1.52;;;13.80;99.90;;;;;;4951607;28;20042;-78
2022/05/31 06:31:56;;;;;;;3.92;1.48;;;13.70;99.90;;;;;;4952795;28;20038;-78
2022/05/31 06:34:23;;;;;;;4.43;1.85;;;13.70;99.90;;;;;;4952009;29;20559;-79
2022/05/31 06:36:49;;;;;;;1.92;1.45;;;14.20;99.90;;;;;;4950249;28;20126;-79
2022/05/31 06:39:16;;;;;;;1.92;1.13;;;15.50;92.90;;;;;;4949155;29;20094;-86
2022/05/31 06:41:41;;;;;;;2.22;1.67;;;17.00;73.60;;;;;;4952788;29;20117;-85
2022/05/31 06:44:07;;;;;;;5.20;1.10;;;18.20;65.00;;;;;;4950822;28;20055;-79
2022/05/31 06:46:33;;;;;;;1.38;1.20;;;18.70;63.10;;;;;;4948855;28;20030;-83
2022/05/31 06:49:01;;;;;;;3.55;1.80;;;19.30;60.30;;;;;;4948429;28;20027;-81
2022/05/31 06:57:00;;;;;;;2.08;1.27;;;19.20;61.50;;;;;;4952180;29;20042;-82
2022/05/31 06:59:26;;;;;;;1.83;1.45;;;19.10;61.60;;;;;;4950882;28;20027;-79
2022/05/31 07:01:53;;;;;;;0.90;0.90;;;19.80;61.00;;;;;;4951138;28;20480;-82
2022/05/31 07:04:19;;;;;;;1.17;1.08;;;21.10;58.30;;;;;;4933172;29;20059;-79
2022/05/31 07:06:45;;;;;;;2.15;0.80;;;21.80;55.70;;;;;;4952000;29;20051;-79
2022/05/31 07:09:12;;;;;;;1.17;0.98;;;21.60;56.30;;;;;;4950936;29;20030;-80
2022/05/31 07:11:39;;;;;;;1.55;1.00;;;22.10;55.90;;;;;;4948891;28;20046;-80
2022/05/31 07:14:05;;;;;;;3.67;0.73;;;22.20;53.70;;;;;;4950204;29;20051;-79
2022/05/31 07:16:30;;;;;;;2.85;1.67;;;21.10;55.60;;;;;;4949656;29;20039;-80
2022/05/31 07:18:57;;;;;;;0.63;0.63;;;19.60;60.20;;;;;;4950601;29;20079;-80
2022/05/31 07:21:24;;;;;;;2.50;0.80;;;19.40;60.70;;;;;;4948831;29;20039;-81
2022/05/31 07:23:49;;;;;;;1.15;0.80;;;20.20;60.10;;;;;;4949842;29;20392;-81
2022/05/31 07:26:15;;;;;;;3.28;0.75;;;21.20;57.80;;;;;;4948198;28;20031;-83
2022/05/31 07:28:41;;;;;;;1.00;0.70;;;22.70;53.40;;;;;;4949647;29;20034;-82
2022/05/31 07:31:08;;;;;;;2.08;0.77;;;22.50;53.00;;;;;;4932264;29;20440;-82
2022/05/31 07:33:35;;;;;;;2.22;0.70;;;22.10;53.40;;;;;;4949568;29;20484;-81
2022/05/31 07:36:03;;;;;;;1.75;0.80;;;21.20;55.10;;;;;;4949458;29;20034;-82
2022/05/31 07:38:29;;;;;;;0.73;0.63;;;20.70;57.80;;;;;;4947841;28;20126;-80
2022/05/31 07:40:55;;;;;;;1.08;0.70;;;20.10;58.70;;;;;;4947955;28;20106;-79
2022/05/31 07:43:21;;;;;;;0.60;0.60;;;19.20;59.90;;;;;;4949334;29;20464;-80
2022/05/31 07:45:46;;;;;;;1.30;0.95;;;19.30;60.60;;;;;;4947641;29;20031;-80
2022/05/31 07:48:12;;;;;;;1.77;0.75;;;19.50;59.80;;;;;;4947809;29;20038;-79
2022/05/31 07:50:38;;;;;;;1.70;1.42;;;19.80;58.80;;;;;;4947983;28;20037;-81
2022/05/31 07:53:04;;;;;;;1.98;1.00;;;19.90;59.20;;;;;;4931631;29;20126;-80
2022/05/31 07:55:30;;;;;;;1.08;0.70;;;19.80;59.90;;;;;;4947682;29;20146;-82
2022/05/31 08:00:41;;;;;;;2.53;0.70;;;19.80;59.10;;;;;;4949373;29;20061;-85
2022/05/31 08:03:08;;;;;;;2.33;1.02;;;19.70;60.00;;;;;;4947166;28;20063;-75
2022/05/31 08:05:38;;;;;;;2.25;0.90;;;19.60;60.90;;;;;;4948468;29;20050;-80
2022/05/31 08:08:05;;;;;;;0.98;0.75;;;21.00;57.50;;;;;;4947397;29;20119;-79
2022/05/31 08:10:31;;;;;;;2.58;0.90;;;21.70;55.40;;;;;;4947426;29;20031;-79
2022/05/31 08:12:56;;;;;;;2.53;0.77;;;21.90;54.10;;;;;;4947844;28;20567;-78
2022/05/31 08:15:22;;;;;;;3.65;0.73;;;22.20;53.70;;;;;;4948838;29;20055;-79
2022/05/31 08:17:48;;;;;;;1.67;0.60;;;22.20;53.90;;;;;;4950544;29;20630;-80
2022/05/31 08:20:16;;;;;;;2.92;1.02;;;21.20;55.30;;;;;;4952215;29;20033;-82
2022/05/31 08:22:45;;;;;;;2.38;0.93;;;20.90;56.90;;;;;;4952624;29;20496;-78
2022/05/31 08:25:12;;;;;;;1.98;0.80;;;20.70;58.00;;;;;;4953408;29;20515;-80
2022/05/31 08:27:38;;;;;;;1.10;1.00;;;20.70;58.80;;;;;;4948833;29;20574;-81
2022/05/31 08:30:05;;;;;;;2.83;0.90;;;21.30;57.30;;;;;;4948278;29;20111;-79
2022/05/31 08:32:33;;;;;;;1.33;0.85;;;21.40;58.20;;;;;;4948350;29;20026;-82
2022/05/31 08:34:58;;;;;;;1.70;0.82;;;21.90;56.60;;;;;;4945452;28;20039;-86
2022/05/31 08:37:24;;;;;;;2.47;0.80;;;21.80;56.50;;;;;;4948436;29;20034;-87
2022/05/31 08:39:50;;;;;;;0.95;0.95;;;22.20;56.60;;;;;;4947759;28;20126;-86
2022/05/31 08:42:22;;;;;;;2.63;1.00;;;21.50;57.20;;;;;;4947010;29;20067;-81
2022/05/31 08:44:56;;;;;;;1.40;0.80;;;21.60;56.10;;;;;;4945944;29;20046;-89
2022/05/31 08:47:26;;;;;;;0.70;0.70;;;21.70;56.50;;;;;;4946532;29;20090;-77
2022/05/31 08:53:09;;;;;;;2.10;1.13;;;21.50;57.00;;;;;;4946037;29;20065;-80
2022/05/31 08:58:32;;;;;;;2.55;0.80;;;20.90;59.60;;;;;;4947316;29;20042;-80
2022/05/31 09:01:02;;;;;;;3.05;1.20;;;21.20;59.10;;;;;;4947689;29;20015;-82
2022/05/31 09:03:41;;;;;;;5.38;0.95;;;20.70;58.30;;;;;;4946423;29;20039;-79
2022/05/31 09:06:14;;;;;;;1.75;0.85;;;21.30;56.60;;;;;;4945841;28;20055;-80
2022/05/31 09:09:03;;;;;;;2.25;0.63;;;21.40;58.30;;;;;;4947725;28;20387;-80
2022/05/31 09:11:34;;;;;;;2.40;0.68;;;21.20;56.80;;;;;;4892212;29;20062;-81
2022/05/31 09:14:14;;;;;;;1.33;1.08;;;21.30;58.30;;;;;;4947651;29;20071;-81
2022/05/31 09:16:45;;;;;;;2.53;0.90;;;21.10;59.50;;;;;;4946684;28;20035;-80
2022/05/31 09:19:26;;;;;;;5.78;1.38;;;21.10;56.90;;;;;;4947858;29;20098;-81
2022/05/31 09:21:52;;;;;;;0.80;0.80;;;21.20;56.90;;;;;;4946633;28;20154;-80
2022/05/31 09:24:20;;;;;;;2.17;0.82;;;21.10;55.80;;;;;;4950640;28;20567;-80
2022/05/31 09:26:53;;;;;;;1.50;0.93;;;21.10;55.60;;;;;;4950133;29;20126;-81
2022/05/31 09:29:46;;;;;;;1.83;0.95;;;21.50;56.90;;;;;;4952922;29;20029;-80
2022/05/31 09:32:15;;;;;;;0.70;0.70;;;21.00;56.80;;;;;;4956351;29;20020;-80
2022/05/31 09:34:49;;;;;;;4.03;0.90;;;20.70;57.20;;;;;;4952472;29;20078;-81
2022/05/31 09:37:58;;;;;;;2.50;0.60;;;21.30;57.40;;;;;;4951430;29;20023;-80
2022/05/31 09:40:39;;;;;;;2.45;1.00;;;21.60;57.30;;;;;;4951150;29;20034;-83
2022/05/31 09:43:21;;;;;;;2.03;0.70;;;22.20;55.60;;;;;;4953680;29;20086;-77
2022/05/31 09:46:10;;;;;;;2.17;0.80;;;21.90;54.50;;;;;;4948736;29;20089;-82
2022/05/31 09:48:47;;;;;;;0.82;0.50;;;22.30;53.20;;;;;;4951272;29;20031;-74
2022/05/31 09:51:19;;;;;;;2.15;0.77;;;22.60;54.70;;;;;;4949144;29;20031;-76
2022/05/31 09:59:25;;;;;;;2.38;0.63;;;21.70;54.50;;;;;;4962683;29;20042;-74
2022/05/31 10:01:51;;;;;;;1.13;0.60;;;21.90;56.20;;;;;;4961007;28;20034;-74
2022/05/31 10:04:35;;;;;;;2.72;0.65;;;22.70;54.70;;;;;;4962266;29;20035;-74
2022/05/31 10:07:06;;;;;;;1.85;0.70;;;22.60;53.70;;;;;;4961568;29;20050;-75
2022/05/31 10:09:36;;;;;;;1.17;0.60;;;22.50;54.40;;;;;;4961821;29;20142;-73
2022/05/31 10:12:05;;;;;;;2.53;1.15;;;23.20;52.30;;;;;;4960301;29;20054;-74
2022/05/31 10:14:36;;;;;;;2.55;0.70;;;23.10;51.90;;;;;;4961224;29;20055;-72
2022/05/31 10:17:33;;;;;;;2.55;0.95;;;22.90;52.60;;;;;;4956783;28;20090;-71
2022/05/31 10:20:18;;;;;;;1.77;0.60;;;22.90;54.50;;;;;;4943135;29;20031;-75
2022/05/31 10:22:58;;;;;;;1.00;0.90;;;23.00;53.00;;;;;;4941284;29;20073;-71
2022/05/31 10:25:45;;;;;;;1.70;1.10;;;22.90;53.80;;;;;;4925498;29;20266;-72
2022/05/31 10:28:29;;;;;;;1.48;0.82;;;22.80;52.90;;;;;;4943023;29;20035;-71
2022/05/31 10:31:35;;;;;;;2.47;0.70;;;23.50;52.90;;;;;;4980478;28;20026;-73
2022/05/31 10:34:04;;;;;;;1.13;0.57;;;22.80;55.20;;;;;;4931460;28;20061;-73
2022/05/31 10:36:51;;;;;;;3.92;0.70;;;22.70;52.60;;;;;;4978435;28;20066;-72
2022/05/31 10:39:21;;;;;;;3.05;0.88;;;22.60;53.30;;;;;;4979555;28;20138;-72
2022/05/31 10:41:49;;;;;;;1.02;0.57;;;22.60;54.10;;;;;;4979846;28;20453;-70
2022/05/31 10:44:32;;;;;;;2.67;0.88;;;22.30;54.90;;;;;;4980132;28;20035;-74
2022/05/31 10:47:10;;;;;;;2.30;0.93;;;22.00;54.00;;;;;;4975133;28;20098;-80
2022/05/31 10:49:36;;;;;;;0.50;0.40;;;21.80;55.40;;;;;;4941997;29;20185;-80
2022/05/31 10:52:20;;;;;;;1.50;1.25;;;21.60;54.90;;;;;;4959404;29;20042;-81
2022/05/31 10:55:09;;;;;;;0.82;0.60;;;21.80;57.50;;;;;;4943874;29;20090;-82
2022/05/31 10:57:56;;;;;;;0.80;0.43;;;21.80;58.00;;;;;;4943975;29;20027;-80
2022/05/31 11:00:26;;;;;;;0.65;0.65;;;22.00;55.50;;;;;;4961175;29;20027;-81
2022/05/31 11:03:21;;;;;;;1.13;0.88;;;22.10;55.70;;;;;;4942983;29;20047;-82
2022/05/31 11:06:01;;;;;;;2.10;0.70;;;21.90;54.00;;;;;;4958023;29;20204;-81
2022/05/31 11:11:36;;;;;;;1.40;0.75;;;21.60;56.30;;;;;;4959202;29;20050;-80
2022/05/31 11:14:18;;;;;;;3.55;0.70;;;21.60;56.20;;;;;;4953410;29;20094;-80
2022/05/31 11:17:07;;;;;;;1.85;0.70;;;21.80;55.10;;;;;;4929505;29;20106;-81
2022/05/31 11:19:48;;;;;;;0.73;0.70;;;22.30;54.00;;;;;;4930424;29;20031;-81
2022/05/31 11:22:51;;;;;;;1.75;1.13;;;22.40;55.00;;;;;;4929920;29;20042;-79
2022/05/31 11:25:37;;;;;;;0.73;0.50;;;23.10;52.80;;;;;;4912844;29;20531;-81
2022/05/31 11:28:19;;;;;;;0.80;0.52;;;23.30;51.10;;;;;;4928731;29;20028;-81
2022/05/31 11:31:36;;;;;;;3.80;0.55;;;23.20;51.70;;;;;;4929893;29;20421;-80
2022/05/31 11:34:17;;;;;;;0.90;0.57;;;23.20;53.10;;;;;;4880244;29;20040;-81
2022/05/31 11:37:01;;;;;;;1.50;0.68;;;24.80;50.60;;;;;;4928562;29;20027;-81
2022/05/31 11:39:58;;;;;;;3.30;0.60;;;24.10;50.20;;;;;;4927313;29;20038;-81
2022/05/31 11:42:59;;;;;;;0.60;0.60;;;24.50;48.70;;;;;;4928754;29;20044;-81
2022/05/31 11:45:36;;;;;;;5.38;0.60;;;24.10;51.90;;;;;;4927221;29;20033;-79
2022/05/31 11:48:17;;;;;;;3.40;0.52;;;24.10;50.90;;;;;;4928630;29;20392;-80
2022/05/31 11:51:08;;;;;;;1.13;0.70;;;23.80;49.60;;;;;;4930111;29;20382;-80
2022/05/31 11:53:49;;;;;;;0.80;0.60;;;24.10;49.00;;;;;;4928702;29;20091;-82
2022/05/31 11:56:22;;;;;;;2.53;0.60;;;24.50;49.00;;;;;;4929054;29;20452;-83
2022/05/31 11:58:52;;;;;;;4.10;1.13;;;24.60;51.40;;;;;;4928358;29;20106;-81
2022/05/31 12:01:25;;;;;;;0.73;0.40;;;24.60;50.00;;;;;;4912712;29;20090;-81
2022/05/31 12:04:00;;;;;;;3.30;0.50;;;25.00;48.70;;;;;;4928082;29;20531;-82
2022/05/31 12:06:31;;;;;;;2.67;0.50;;;25.00;48.10;;;;;;4929110;29;20042;-82
2022/05/31 12:09:15;;;;;;;0.68;0.60;;;26.00;48.10;;;;;;4927890;29;20032;-81
2022/05/31 12:12:15;;;;;;;4.00;1.30;;;25.80;50.00;;;;;;4927982;29;20393;-80
2022/05/31 12:14:48;;;;;;;0.30;0.30;;;25.60;45.50;;;;;;4925370;29;20055;-80
2022/05/31 12:17:16;;;;;;;1.58;0.60;;;25.10;45.40;;;;;;4946695;28;20547;-80
2022/05/31 12:20:08;;;;;;;0.60;0.40;;;25.70;46.60;;;;;;4947550;28;20054;-82
2022/05/31 12:22:40;;;;;;;1.75;0.40;;;25.80;45.60;;;;;;4948649;29;20222;-82
2022/05/31 12:25:18;;;;;;;2.15;0.50;;;25.80;45.40;;;;;;4946962;29;20516;-79
2022/05/31 12:27:48;;;;;;;1.00;0.80;;;25.50;46.50;;;;;;4948610;29;20094;-85
2022/05/31 12:30:31;;;;;;;2.20;0.40;;;25.30;44.20;;;;;;4932282;29;20031;-83
2022/05/31 12:32:58;;;;;;;0.30;0.30;;;25.60;47.70;;;;;;4947882;28;20091;-82
2022/05/31 12:35:30;;;;;;;0.40;0.40;;;26.40;45.00;;;;;;4948449;29;20086;-80
2022/05/31 12:38:01;;;;;;;1.98;1.10;;;27.40;43.80;;;;;;4930898;29;20043;-81
2022/05/31 12:40:33;;;;;;;0.63;0.30;;;28.30;42.90;;;;;;4931182;29;20015;-79
2022/05/31 12:43:00;;;;;;;1.33;0.47;;;27.90;42.70;;;;;;4950023;29;20039;-79
2022/05/31 12:45:47;;;;;;;3.25;0.43;;;;;;;;;;4948104;29;20023;-79
2022/05/31 12:48:23;;;;;;;3.65;0.55;;;26.50;44.80;;;;;;4930749;29;20397;-79
2022/05/31 12:50:55;;;;;;;0.73;0.40;;;22.10;44.80;;;;;;4946939;28;20130;-80
2022/05/31 12:53:36;;;;;;;1.23;0.57;;;24.60;45.40;;;;;;4931049;29;20027;-84
2022/05/31 12:56:03;;;;;;;1.85;0.40;;;24.20;48.50;;;;;;4931113;29;20031;-85
2022/05/31 12:58:33;;;;;;;0.55;0.40;;;24.10;48.90;;;;;;4947321;28;20495;-84
2022/05/31 13:01:11;;;;;;;2.05;0.98;;;24.10;50.10;;;;;;4934749;29;20472;-84
2022/05/31 13:03:40;;;;;;;1.33;0.30;;;23.30;50.70;;;;;;4934844;29;20035;-79
2022/05/31 13:06:17;;;;;;;1.27;0.30;;;23.50;50.80;;;;;;4933932;29;20400;-79
2022/05/31 13:08:52;;;;;;;1.33;0.45;;;23.00;51.60;;;;;;4951936;29;20089;-80
2022/05/31 13:20:32;;;;;;;0.75;0.70;;;22.40;54.20;;;;;;4932523;29;20062;-81
2022/05/31 13:23:07;;;;;;;1.85;0.55;;;22.10;52.70;;;;;;4915022;29;20428;-79
2022/05/31 13:25:39;;;;;;;3.67;0.50;;;21.90;52.60;;;;;;4915060;29;20055;-79
2022/05/31 13:28:05;;;;;;;1.80;0.52;;;21.80;52.80;;;;;;4932115;29;20040;-79
2022/05/31 13:30:34;;;;;;;1.40;0.40;;;21.80;53.10;;;;;;4915175;29;20144;-84
2022/05/31 13:33:14;;;;;;;1.42;0.77;;;21.90;53.50;;;;;;4932526;29;20086;-79
2022/05/31 13:35:40;;;;;;;1.02;0.80;;;21.90;53.10;;;;;;4931512;29;20115;-78
2022/05/31 13:38:28;;;;;;;1.75;0.50;;;21.90;52.20;;;;;;4932017;29;20130;-78
2022/05/31 13:40:57;;;;;;;0.93;0.47;;;21.80;52.90;;;;;;4914706;29;20036;-80
2022/05/31 13:43:38;;;;;;;1.63;0.50;;;21.80;53.70;;;;;;4932002;29;20036;-79
2022/05/31 13:46:17;;;;;;;1.95;0.50;;;21.80;53.10;;;;;;4932566;29;20432;-78
2022/05/31 13:48:48;;;;;;;3.30;0.55;;;21.80;52.30;;;;;;4913560;29;20059;-79
2022/05/31 13:51:21;;;;;;;1.65;0.60;;;21.20;52.90;;;;;;4912803;29;20316;-81